White Bear Township, Minnesota
Current Conditions -  °F | °C
As of 2:11 PM on Sunday 23 Nov 2014 (Local Time) from K21D Reporting Station
Haze Haze  
Wind Chill:   Ceiling: 700
Heat Index:   Visibility: 2mi
Dew Point:   Wind: 5mph
Humidity: 100%   Direction: 330°NNW
Pressure: 29.38"   Gusts: NA
Location:  45.0958°N, 93.0043°W
Report Text: K21D 232011Z AUTO 33004KT 2SM BR OVC007 07/07 A2938 RMK AO2
Loading
Personal Weather Stations






























Interactive Weather Map New forecast layout! Learn more

10-Day Weather Forecast

Advertisements
Track Severe Weather on mobile